Ana Sayfa
METAR-TAF:

METAR-TAF

Havaalanları :

Sanya Phoenix Uluslararası Havalimanı

Sanya, Çin

Enlem: 18-18N, Boylam: 109-24E, yükseklik: 27 m

Güncel hava durumu gözlemi

Rapor saat 20:00 UTC de 15 dakika önce yapıldı.
Rüzgar değişken yönden 2 kt
Sıcaklık 28°C
Nem 89%
Basınç 1003 hPa
Görüş mesafesi 10 km veya daha fazla
2000 ft yükseklikte az bulutlu

METAR: ZJSY 222000Z VRB01MPS 9999 FEW020 28/26 Q1003 NOSIG

Saat: 04:15 (20:15 UTC)

Tahmin

Rapor saat 15:03 UTC de 5 saat ve 12 dakika önce yapıldı.
Ayın 22'si saat 18 UTC'den ayın 23'si saat 18 UTC'ye kadar geçerli Tahmin
Rüzgar güneybatıdan 6 kt
Görüş mesafesi 10 km veya daha fazla
2000 ft yükseklikte parçalı bulutlu
Geçici
ayın 22'si saat 18 UTC'den ayın 22'si saat 24 UTC'ye kadar
1600 ft yükseklikte parçalı bulutlu
2500 ft yükseklikte az bulutlu, Kümülonimbus.

TAF: ZJSY 221503Z 2218/2318 22003MPS 9999 SCT020 TX33/2306Z TN28/2221Z TEMPO 2218/2224 SCT016 FEW025CB

4.000'den fazla havaalanı için hava durumu gözlemleri ve tahminleri (METAR ve TAF raporları).

Kullanılabilir istasyonlar harita üzerinde sarı ve kırmızı noktalarla gösterilir.

İstasyonun adını görmek için fareyi noktanın üzerinde gezdirin.

Sonrasında hava gözlem ve tahminlerini görmek için tıklayın.

Haritayı değiştirmek için: yaklaştırmak için siyah artı işaretli yeşil düğmeye ve uzaklaştırmak için de eksi işaretli düğmeye hızla tıklayın; bitişik haritalar için yeşil okları kullanın.


METAR-TAF: